Time;durP1;ratioP1;P1;durP2;ratioP2;P2;SDS_P1;SDS_P2;PMS_P1;PMS_P2;Temp;Humidity;BMP_temperature;BMP_pressure;BME280_temperature;BME280_humidity;BME280_pressure;Samples;Min_cycle;Max_cycle;Signal;HPM_P1;HPM_P2
2023/04/08 00:00:48;;;;;;;20.70;15.05;;;3.70;99.90;;;;;;5061780;28;20716;-75
2023/04/08 00:03:14;;;;;;;20.70;14.82;;;3.70;99.90;;;;;;5061189;28;20044;-76
2023/04/08 00:05:40;;;;;;;19.10;14.98;;;3.60;99.90;;;;;;5060641;28;20048;-75
2023/04/08 00:08:05;;;;;;;19.27;14.82;;;3.60;99.90;;;;;;5067687;28;20048;-75
2023/04/08 00:10:31;;;;;;;19.05;15.10;;;3.60;99.90;;;;;;5066952;28;20072;-75
2023/04/08 00:12:57;;;;;;;19.80;15.48;;;3.50;99.90;;;;;;5067813;28;20045;-75
2023/04/08 00:15:23;;;;;;;19.90;15.73;;;3.50;99.90;;;;;;5066709;28;20108;-75
2023/04/08 00:17:50;;;;;;;20.27;14.98;;;3.50;99.90;;;;;;5064567;28;20041;-75
2023/04/08 00:20:15;;;;;;;18.73;16.17;;;3.40;99.90;;;;;;5062989;28;20461;-75
2023/04/08 00:22:41;;;;;;;21.73;15.52;;;3.40;99.90;;;;;;5067115;28;20083;-75
2023/04/08 00:25:08;;;;;;;20.05;15.50;;;3.40;99.90;;;;;;5067617;28;20502;-75
2023/04/08 00:27:34;;;;;;;24.58;16.73;;;3.30;99.90;;;;;;5066697;28;20048;-76
2023/04/08 00:30:00;;;;;;;20.55;16.55;;;3.30;99.90;;;;;;5067065;28;20498;-75
2023/04/08 00:32:27;;;;;;;21.58;15.35;;;3.20;99.90;;;;;;5065997;28;20060;-75
2023/04/08 00:34:53;;;;;;;22.92;17.52;;;3.20;99.90;;;;;;5065465;28;20052;-75
2023/04/08 00:37:18;;;;;;;23.20;17.20;;;3.10;99.90;;;;;;5057054;28;20052;-75
2023/04/08 00:39:45;;;;;;;23.38;17.90;;;3.10;99.90;;;;;;5063575;28;20044;-75
2023/04/08 00:42:12;;;;;;;24.95;18.00;;;3.10;99.90;;;;;;5067300;28;20573;-75
2023/04/08 00:44:37;;;;;;;24.13;18.80;;;3.10;99.90;;;;;;5066629;28;20132;-75
2023/04/08 00:47:05;;;;;;;23.55;17.73;;;3.10;99.90;;;;;;5059523;28;20153;-75
2023/04/08 00:49:31;;;;;;;24.92;19.45;;;3.10;99.90;;;;;;5058222;28;20040;-75
2023/04/08 00:51:58;;;;;;;26.33;19.77;;;3.10;99.90;;;;;;5065603;28;20106;-76
2023/04/08 00:54:24;;;;;;;23.75;18.98;;;3.10;99.90;;;;;;5063331;28;20039;-75
2023/04/08 00:56:49;;;;;;;25.50;19.70;;;3.10;99.90;;;;;;5067525;28;20052;-75
2023/04/08 00:59:17;;;;;;;28.40;20.27;;;3.00;99.90;;;;;;5066874;28;20044;-76
2023/04/08 01:02:05;;;;;;;26.55;19.23;;;3.10;99.90;;;;;;5061225;28;20072;-75
2023/04/08 01:05:03;;;;;;;30.67;20.30;;;3.10;99.90;;;;;;5065933;28;20048;-75
2023/04/08 01:07:47;;;;;;;26.30;19.85;;;3.00;99.90;;;;;;5065867;28;20532;-75
2023/04/08 01:10:21;;;;;;;27.70;19.65;;;3.00;99.90;;;;;;5058823;28;20052;-75
2023/04/08 01:12:54;;;;;;;26.90;20.48;;;2.90;99.90;;;;;;5060193;28;20071;-75
2023/04/08 01:15:21;;;;;;;26.10;21.38;;;2.90;99.90;;;;;;5050172;28;20174;-75
2023/04/08 01:17:51;;;;;;;23.67;19.85;;;3.00;99.90;;;;;;5058334;28;20109;-75
2023/04/08 01:20:18;;;;;;;35.95;22.58;;;2.90;99.90;;;;;;5062129;28;20048;-75
2023/04/08 01:22:47;;;;;;;28.73;22.00;;;2.90;99.90;;;;;;5058179;28;20041;-75
2023/04/08 01:25:17;;;;;;;;;;;2.80;99.90;;;;;;5048785;28;20082;-75
2023/04/08 01:27:45;;;;;;;33.33;22.67;;;2.80;99.90;;;;;;5063252;28;20007;-75
2023/04/08 01:30:14;;;;;;;31.42;22.85;;;2.70;99.90;;;;;;5047781;28;20057;-75
2023/04/08 01:32:41;;;;;;;33.25;23.55;;;2.70;99.90;;;;;;5066636;28;20739;-75
2023/04/08 01:35:08;;;;;;;28.33;23.30;;;2.70;99.90;;;;;;5051846;28;20055;-76
2023/04/08 01:37:35;;;;;;;31.88;23.00;;;2.70;99.90;;;;;;5062419;28;20041;-75
2023/04/08 01:40:03;;;;;;;35.92;24.10;;;2.70;99.90;;;;;;5066239;28;20056;-75
2023/04/08 01:42:29;;;;;;;37.22;26.05;;;2.70;99.90;;;;;;5051182;28;20037;-75
2023/04/08 01:44:56;;;;;;;33.60;24.77;;;2.70;99.90;;;;;;5060181;28;20080;-75
2023/04/08 01:47:24;;;;;;;35.60;25.05;;;2.70;99.90;;;;;;5067851;28;20043;-75
2023/04/08 01:49:51;;;;;;;34.95;25.17;;;2.70;99.90;;;;;;5066730;28;20049;-75
2023/04/08 01:52:19;;;;;;;37.05;25.67;;;2.70;99.90;;;;;;5066152;28;20175;-75
2023/04/08 01:54:47;;;;;;;33.50;25.40;;;2.70;99.90;;;;;;5061740;28;20060;-75
2023/04/08 01:57:22;;;;;;;34.97;24.17;;;2.70;99.90;;;;;;5061345;28;20417;-75
2023/04/08 01:59:52;;;;;;;31.65;24.10;;;2.70;99.90;;;;;;5058067;28;20040;-76
2023/04/08 02:02:21;;;;;;;30.95;23.02;;;2.70;99.90;;;;;;5062519;28;20064;-75
2023/04/08 02:04:47;;;;;;;30.50;22.75;;;2.80;99.90;;;;;;5062816;28;20501;-76
2023/04/08 02:07:14;;;;;;;35.20;24.40;;;2.70;99.90;;;;;;5058444;28;20098;-75
2023/04/08 02:09:40;;;;;;;34.58;22.67;;;2.80;99.90;;;;;;5066502;28;20048;-75
2023/04/08 02:12:06;;;;;;;38.90;26.42;;;2.80;99.90;;;;;;5057440;28;20053;-75
2023/04/08 02:14:32;;;;;;;34.40;25.02;;;2.80;99.90;;;;;;5065309;28;20059;-76
2023/04/08 02:17:20;;;;;;;33.58;24.38;;;2.80;99.90;;;;;;5061298;28;20043;-75
2023/04/08 02:20:20;;;;;;;36.08;25.48;;;2.80;99.90;;;;;;5061406;28;20048;-75
2023/04/08 02:22:55;;;;;;;33.67;23.83;;;2.80;99.90;;;;;;5064920;28;20056;-76
2023/04/08 02:25:24;;;;;;;29.65;23.45;;;2.80;99.90;;;;;;5070219;28;20040;-75
2023/04/08 02:27:50;;;;;;;;;;;2.80;99.90;;;;;;5059524;28;20052;-74
2023/04/08 02:30:18;;;;;;;31.40;25.75;;;2.70;99.90;;;;;;5052961;28;19978;-73
2023/04/08 02:32:45;;;;;;;35.92;27.17;;;2.60;99.90;;;;;;5060664;28;20044;-73
2023/04/08 02:35:14;;;;;;;36.93;27.33;;;2.60;99.90;;;;;;5062523;28;20048;-73
2023/04/08 02:37:41;;;;;;;;;;;2.50;99.90;;;;;;5067333;28;20117;-73
2023/04/08 02:40:34;;;;;;;28.55;23.63;;;2.50;99.90;;;;;;5069744;28;19920;-73
2023/04/08 02:43:00;;;;;;;32.60;24.33;;;2.50;99.90;;;;;;5057884;28;20502;-73
2023/04/08 02:45:30;;;;;;;36.13;26.88;;;2.60;99.90;;;;;;5068707;28;20804;-73
2023/04/08 02:47:56;;;;;;;34.90;25.00;;;2.60;99.90;;;;;;5068271;28;20510;-73
2023/04/08 02:50:21;;;;;;;37.85;26.40;;;2.50;99.90;;;;;;5055573;28;20086;-73
2023/04/08 02:52:47;;;;;;;34.72;26.33;;;2.50;99.90;;;;;;5066364;28;20247;-73
2023/04/08 02:55:13;;;;;;;31.67;24.90;;;2.40;99.90;;;;;;5057713;28;20047;-74
2023/04/08 02:57:40;;;;;;;42.17;28.10;;;2.40;99.90;;;;;;5069560;28;20508;-73
2023/04/08 03:00:07;;;;;;;32.93;26.80;;;2.40;99.90;;;;;;5069490;28;20094;-73
2023/04/08 03:02:32;;;;;;;36.65;26.02;;;2.40;99.90;;;;;;5060517;28;20054;-73
2023/04/08 03:04:59;;;;;;;37.25;29.13;;;2.50;99.90;;;;;;5059750;28;20036;-73
2023/04/08 03:07:25;;;;;;;40.50;27.80;;;2.40;99.90;;;;;;5059620;28;20456;-73
2023/04/08 03:09:53;;;;;;;32.28;25.27;;;2.40;99.90;;;;;;5065663;28;20251;-73
2023/04/08 03:12:20;;;;;;;38.10;26.80;;;2.40;99.90;;;;;;5067829;28;20053;-73
2023/04/08 03:14:46;;;;;;;36.40;26.35;;;2.40;99.90;;;;;;5069197;28;20094;-73
2023/04/08 03:17:12;;;;;;;44.90;31.23;;;2.50;99.90;;;;;;5067146;28;20040;-74
2023/04/08 03:19:39;;;;;;;42.55;30.63;;;2.50;99.90;;;;;;5065994;28;20055;-73
2023/04/08 03:22:05;;;;;;;37.30;27.40;;;2.50;99.90;;;;;;5069172;28;20055;-73
2023/04/08 03:24:31;;;;;;;47.20;29.45;;;2.40;99.90;;;;;;5063038;28;20061;-73
2023/04/08 03:26:56;;;;;;;43.05;30.00;;;2.40;99.90;;;;;;5066818;28;20848;-73
2023/04/08 03:29:22;;;;;;;39.75;29.08;;;2.30;99.90;;;;;;5068388;28;20037;-73
2023/04/08 03:31:48;;;;;;;44.58;32.80;;;2.30;99.90;;;;;;5067620;28;20509;-73
2023/04/08 03:34:13;;;;;;;49.05;31.98;;;2.30;99.90;;;;;;5066203;28;20416;-73
2023/04/08 03:36:39;;;;;;;46.63;30.85;;;2.20;99.90;;;;;;5064730;28;20163;-73
2023/04/08 03:39:05;;;;;;;46.47;31.48;;;2.20;99.90;;;;;;5063863;28;20091;-73
2023/04/08 03:41:30;;;;;;;48.05;32.63;;;2.20;99.90;;;;;;5062804;28;20561;-74
2023/04/08 03:43:57;;;;;;;50.42;33.00;;;2.10;99.90;;;;;;5061400;28;20115;-73
2023/04/08 03:46:22;;;;;;;52.03;34.45;;;2.10;99.90;;;;;;5068493;28;20036;-73
2023/04/08 03:48:48;;;;;;;49.30;32.85;;;2.10;99.90;;;;;;5065176;28;20094;-73
2023/04/08 03:51:14;;;;;;;45.25;31.13;;;2.10;99.90;;;;;;5062199;28;20056;-73
2023/04/08 03:53:39;;;;;;;44.53;31.48;;;2.10;99.90;;;;;;5062952;28;20102;-74
2023/04/08 03:56:05;;;;;;;54.70;34.50;;;2.10;99.90;;;;;;5064177;28;20140;-73
2023/04/08 03:58:31;;;;;;;46.45;33.33;;;2.10;99.90;;;;;;5056104;28;20044;-73
2023/04/08 04:00:57;;;;;;;54.33;35.25;;;2.10;99.90;;;;;;5064754;28;20094;-73
2023/04/08 04:03:23;;;;;;;50.85;33.78;;;2.10;99.90;;;;;;5065608;28;20160;-73
2023/04/08 04:05:49;;;;;;;46.25;33.20;;;2.10;99.90;;;;;;5060617;28;20127;-73
2023/04/08 04:08:15;;;;;;;53.45;35.60;;;2.00;99.90;;;;;;5067215;28;20056;-73
2023/04/08 04:10:41;;;;;;;56.08;36.28;;;2.00;99.90;;;;;;5056100;28;20490;-74
2023/04/08 04:13:07;;;;;;;50.40;34.17;;;2.00;99.90;;;;;;5066666;28;20044;-73
2023/04/08 04:15:32;;;;;;;54.83;34.97;;;2.10;99.90;;;;;;5063535;28;20079;-74
2023/04/08 04:17:58;;;;;;;55.10;33.10;;;2.10;99.90;;;;;;5065352;28;20036;-73
2023/04/08 04:20:24;;;;;;;53.13;35.25;;;2.10;99.90;;;;;;5061328;28;20040;-73
2023/04/08 04:22:50;;;;;;;54.25;35.63;;;2.20;99.90;;;;;;5068129;28;20048;-73
2023/04/08 04:25:16;;;;;;;61.90;39.13;;;2.20;99.90;;;;;;5065798;28;20086;-73
2023/04/08 04:27:42;;;;;;;50.63;34.55;;;2.20;99.90;;;;;;5066395;28;20071;-73
2023/04/08 04:30:08;;;;;;;55.08;35.53;;;2.20;99.90;;;;;;5066847;28;20848;-73
2023/04/08 04:32:34;;;;;;;60.42;39.90;;;2.30;99.90;;;;;;5064990;28;20080;-73
2023/04/08 04:35:00;;;;;;;52.17;34.88;;;2.30;99.90;;;;;;5061904;28;20159;-73
2023/04/08 04:37:26;;;;;;;58.55;38.63;;;2.30;99.90;;;;;;5066331;28;20045;-73
2023/04/08 04:39:52;;;;;;;54.10;35.67;;;2.40;99.90;;;;;;5067521;28;20600;-74
2023/04/08 04:42:17;;;;;;;59.55;37.65;;;2.40;99.90;;;;;;5067688;28;20164;-74
2023/04/08 04:44:43;;;;;;;56.78;34.72;;;2.40;99.90;;;;;;5067587;28;20064;-73
2023/04/08 04:47:09;;;;;;;53.10;35.78;;;2.40;99.90;;;;;;5063034;28;20049;-73
2023/04/08 04:49:34;;;;;;;58.08;36.42;;;2.40;99.90;;;;;;5058511;28;20051;-73
2023/04/08 04:52:00;;;;;;;46.22;31.85;;;2.40;99.90;;;;;;5059693;28;20056;-74
2023/04/08 04:54:26;;;;;;;55.50;34.45;;;2.40;99.90;;;;;;5065862;28;20082;-74
2023/04/08 04:56:52;;;;;;;59.30;36.08;;;2.50;99.90;;;;;;5053411;28;20409;-73
2023/04/08 04:59:17;;;;;;;55.33;36.25;;;2.50;99.90;;;;;;5047882;28;20090;-73
2023/04/08 05:01:43;;;;;;;58.33;37.13;;;2.60;99.90;;;;;;5064506;28;20572;-73
2023/04/08 05:04:09;;;;;;;48.53;33.35;;;2.60;99.90;;;;;;5056709;28;20060;-73
2023/04/08 05:06:35;;;;;;;54.42;37.28;;;2.60;99.90;;;;;;5063030;28;20086;-73
2023/04/08 05:09:01;;;;;;;63.50;38.83;;;2.70;99.90;;;;;;5064038;28;20051;-74
2023/04/08 05:11:27;;;;;;;55.72;37.78;;;2.80;99.90;;;;;;5064122;28;20040;-74
2023/04/08 05:13:52;;;;;;;51.25;34.13;;;2.90;99.90;;;;;;5058443;28;20041;-74
2023/04/08 05:16:18;;;;;;;52.58;35.92;;;3.00;99.90;;;;;;5065186;28;20075;-74
2023/04/08 05:18:44;;;;;;;65.93;38.28;;;3.00;99.90;;;;;;5062504;28;20063;-74
2023/04/08 05:21:09;;;;;;;60.10;37.58;;;3.00;99.90;;;;;;5065653;28;20052;-74
2023/04/08 05:23:35;;;;;;;64.78;39.95;;;3.00;99.90;;;;;;5062789;28;20045;-74
2023/04/08 05:26:00;;;;;;;63.10;40.78;;;3.00;99.90;;;;;;5061415;28;20055;-74
2023/04/08 05:28:26;;;;;;;65.65;39.50;;;3.10;99.90;;;;;;5062592;28;20538;-74
2023/04/08 05:30:53;;;;;;;74.00;42.10;;;3.30;99.90;;;;;;5062401;28;20135;-74
2023/04/08 05:33:19;;;;;;;64.72;42.60;;;3.50;99.90;;;;;;5061923;28;20053;-73
2023/04/08 05:35:45;;;;;;;69.30;44.47;;;3.70;99.90;;;;;;5060303;28;20057;-73
2023/04/08 05:38:12;;;;;;;70.72;44.03;;;4.00;99.90;;;;;;5051213;28;20048;-73
2023/04/08 05:40:37;;;;;;;73.95;42.65;;;4.10;99.90;;;;;;5052512;28;20045;-72
2023/04/08 05:43:03;;;;;;;70.93;44.25;;;4.30;99.90;;;;;;5052032;28;20041;-73
2023/04/08 05:45:29;;;;;;;71.45;41.95;;;4.40;99.90;;;;;;5062662;28;20071;-74
2023/04/08 05:47:55;;;;;;;58.17;41.17;;;4.40;99.90;;;;;;5065845;28;20091;-74
2023/04/08 05:50:21;;;;;;;66.43;45.55;;;4.40;99.90;;;;;;5061433;28;20045;-74
2023/04/08 05:52:46;;;;;;;62.50;41.13;;;4.40;99.90;;;;;;5061883;28;20059;-74
2023/04/08 05:55:13;;;;;;;61.50;40.80;;;4.60;99.90;;;;;;5061574;28;20037;-73
2023/04/08 05:57:39;;;;;;;58.70;38.05;;;4.90;99.90;;;;;;5065532;28;20036;-73
2023/04/08 06:00:07;;;;;;;57.55;38.90;;;5.30;99.90;;;;;;5062142;28;20417;-73
2023/04/08 06:02:34;;;;;;;57.58;37.85;;;5.70;99.90;;;;;;5064505;28;20056;-73
2023/04/08 06:05:00;;;;;;;58.63;36.92;;;5.90;99.90;;;;;;5067669;28;20683;-74
2023/04/08 06:07:25;;;;;;;58.83;37.08;;;5.90;99.90;;;;;;5066181;28;20112;-73
2023/04/08 06:09:51;;;;;;;53.58;34.65;;;6.00;99.90;;;;;;5067759;28;20056;-73
2023/04/08 06:12:19;;;;;;;52.65;33.67;;;6.10;99.90;;;;;;5062999;28;20041;-74
2023/04/08 06:14:45;;;;;;;;;;;6.10;99.90;;;;;;5070895;28;20063;-73
2023/04/08 06:17:11;;;;;;;48.83;32.53;;;6.20;99.90;;;;;;5061946;28;19924;-74
2023/04/08 06:19:36;;;;;;;45.08;32.20;;;6.30;99.90;;;;;;5067032;28;20145;-74
2023/04/08 06:22:02;;;;;;;44.35;29.40;;;6.40;99.90;;;;;;5070217;28;20530;-74
2023/04/08 06:24:31;;;;;;;42.67;30.30;;;6.60;99.90;;;;;;5068202;28;20037;-74
2023/04/08 06:26:57;;;;;;;;;;;6.70;99.90;;;;;;5061574;28;20097;-74
2023/04/08 06:29:23;;;;;;;47.72;31.17;;;6.60;99.90;;;;;;5069988;28;19924;-74
2023/04/08 06:31:49;;;;;;;52.45;31.77;;;6.70;99.90;;;;;;5067378;28;20052;-74
2023/04/08 06:34:15;;;;;;;47.28;32.10;;;6.80;99.90;;;;;;5066756;28;20806;-74
2023/04/08 06:36:41;;;;;;;48.92;31.23;;;6.70;99.90;;;;;;5064781;28;20777;-73
2023/04/08 06:39:07;;;;;;;47.80;31.73;;;6.80;99.90;;;;;;5058959;28;20041;-73
2023/04/08 06:41:32;;;;;;;45.92;31.50;;;6.80;99.90;;;;;;5067472;28;20138;-73
2023/04/08 06:43:59;;;;;;;43.70;30.42;;;6.80;99.90;;;;;;5069355;28;20041;-73
2023/04/08 06:46:25;;;;;;;53.67;29.15;;;6.70;99.90;;;;;;5064778;28;20444;-73
2023/04/08 06:48:50;;;;;;;46.05;29.42;;;6.60;99.90;;;;;;5069164;28;20052;-74
2023/04/08 06:51:16;;;;;;;37.83;28.40;;;6.70;99.90;;;;;;5063135;28;20409;-73
2023/04/08 06:53:43;;;;;;;39.10;27.58;;;6.70;99.90;;;;;;5061084;28;20382;-74
2023/04/08 06:56:08;;;;;;;40.33;27.23;;;6.80;99.90;;;;;;5065240;28;20055;-73
2023/04/08 06:58:34;;;;;;;38.28;28.35;;;6.90;99.90;;;;;;5070191;28;20424;-73
2023/04/08 07:01:01;;;;;;;38.55;27.75;;;7.00;99.90;;;;;;5068049;28;20041;-73
2023/04/08 07:03:27;;;;;;;34.10;26.10;;;7.10;99.90;;;;;;5066899;28;20053;-73
2023/04/08 07:05:53;;;;;;;40.28;28.25;;;7.20;99.90;;;;;;5058564;28;20040;-74
2023/04/08 07:08:19;;;;;;;42.40;27.40;;;7.30;99.90;;;;;;5064482;28;20041;-75
2023/04/08 07:10:45;;;;;;;33.85;25.58;;;7.30;99.90;;;;;;5059191;28;20074;-74
2023/04/08 07:13:11;;;;;;;42.30;26.67;;;7.30;99.90;;;;;;5059167;28;20036;-75
2023/04/08 07:15:36;;;;;;;34.90;25.08;;;7.30;99.90;;;;;;5062398;28;20056;-75
2023/04/08 07:18:03;;;;;;;37.42;25.70;;;7.20;99.90;;;;;;5063374;28;20157;-75
2023/04/08 07:20:29;;;;;;;41.67;27.33;;;7.30;99.90;;;;;;5066266;28;20050;-75
2023/04/08 07:22:54;;;;;;;36.83;26.00;;;7.20;99.90;;;;;;5063746;28;20055;-74
2023/04/08 07:25:20;;;;;;;40.85;24.98;;;7.10;99.90;;;;;;5068566;28;20040;-75
2023/04/08 07:27:46;;;;;;;33.60;26.23;;;7.00;99.90;;;;;;5068461;28;20543;-75
2023/04/08 07:30:11;;;;;;;37.72;27.25;;;7.00;99.90;;;;;;5069211;28;20509;-74
2023/04/08 07:32:37;;;;;;;38.25;26.73;;;7.10;99.90;;;;;;5067884;28;20056;-74
2023/04/08 07:35:03;;;;;;;40.10;26.45;;;7.20;99.90;;;;;;5062295;28;20114;-75
2023/04/08 07:37:29;;;;;;;35.35;24.95;;;7.30;99.90;;;;;;5061483;28;20122;-74
2023/04/08 07:39:55;;;;;;;38.78;24.67;;;7.20;99.90;;;;;;5060035;28;20131;-74
2023/04/08 07:42:20;;;;;;;35.00;25.08;;;7.10;99.90;;;;;;5062879;28;20380;-75
2023/04/08 07:44:46;;;;;;;40.47;27.35;;;7.20;99.90;;;;;;5058402;28;20040;-74
2023/04/08 07:47:13;;;;;;;40.88;28.95;;;7.40;99.90;;;;;;5056788;28;20044;-73
2023/04/08 07:49:39;;;;;;;37.38;27.40;;;7.50;99.90;;;;;;5064207;28;20045;-74
2023/04/08 07:52:05;;;;;;;38.92;28.20;;;7.40;99.90;;;;;;5058849;28;20399;-74
2023/04/08 07:54:34;;;;;;;37.45;26.27;;;7.40;99.90;;;;;;5060113;28;20151;-74
2023/04/08 07:57:01;;;;;;;33.53;25.23;;;7.50;99.90;;;;;;5054126;28;20057;-74
2023/04/08 07:59:27;;;;;;;36.75;26.40;;;7.50;99.90;;;;;;5052496;28;20051;-73
2023/04/08 08:01:53;;;;;;;39.60;26.85;;;7.50;99.90;;;;;;5061918;28;20151;-74
2023/04/08 08:04:19;;;;;;;36.88;27.60;;;7.40;99.90;;;;;;5063346;28;20153;-74
2023/04/08 08:06:46;;;;;;;39.97;28.70;;;7.40;99.90;;;;;;5064330;28;20045;-74
2023/04/08 08:09:12;;;;;;;34.28;26.13;;;7.30;99.90;;;;;;5056940;28;20131;-74
2023/04/08 08:11:38;;;;;;;41.65;28.15;;;7.30;99.90;;;;;;5065331;28;20047;-74
2023/04/08 08:14:04;;;;;;;36.10;26.67;;;7.30;99.90;;;;;;5060955;28;20049;-74
2023/04/08 08:16:30;;;;;;;39.20;26.60;;;7.50;99.90;;;;;;5057983;28;20040;-74
2023/04/08 08:18:57;;;;;;;41.72;25.33;;;7.60;99.90;;;;;;5059674;28;20056;-74
2023/04/08 08:21:23;;;;;;;36.72;26.10;;;7.70;99.90;;;;;;5063980;28;20048;-74
2023/04/08 08:23:50;;;;;;;39.78;26.58;;;7.70;99.90;;;;;;5057124;28;20702;-74
2023/04/08 08:26:16;;;;;;;37.90;26.73;;;7.60;99.90;;;;;;5057784;28;20409;-74
2023/04/08 08:28:42;;;;;;;42.53;26.92;;;7.40;99.90;;;;;;5062509;28;20291;-74
2023/04/08 08:31:07;;;;;;;43.60;28.95;;;7.30;99.90;;;;;;5053811;28;20269;-74
2023/04/08 08:33:33;;;;;;;38.70;27.15;;;7.30;99.90;;;;;;5059885;28;20037;-73
2023/04/08 08:35:59;;;;;;;40.13;28.52;;;7.40;99.90;;;;;;5057583;28;20106;-74
2023/04/08 08:38:25;;;;;;;40.28;30.42;;;7.40;99.90;;;;;;5063224;28;20052;-74
2023/04/08 08:40:56;;;;;;;43.95;28.48;;;7.40;99.90;;;;;;5056114;28;20052;-74
2023/04/08 08:43:23;;;;;;;41.72;29.80;;;7.50;99.90;;;;;;5055368;28;20123;-74
2023/04/08 08:45:48;;;;;;;40.20;28.13;;;7.40;99.90;;;;;;5060117;28;20044;-74
2023/04/08 08:48:14;;;;;;;46.75;28.65;;;7.30;99.90;;;;;;5061141;28;20067;-74
2023/04/08 08:50:40;;;;;;;41.75;29.58;;;7.30;99.90;;;;;;5063391;28;20052;-74
2023/04/08 08:53:05;;;;;;;38.53;27.83;;;7.30;99.90;;;;;;5061348;28;20126;-74
2023/04/08 08:55:32;;;;;;;37.42;26.50;;;7.30;99.90;;;;;;5054728;28;20071;-74
2023/04/08 08:58:01;;;;;;;42.65;27.95;;;7.20;99.90;;;;;;5062281;28;20048;-74
2023/04/08 09:00:36;;;;;;;37.67;28.15;;;7.20;99.90;;;;;;5062007;28;20044;-74
2023/04/08 09:03:21;;;;;;;38.85;28.65;;;7.20;99.90;;;;;;5057630;28;20083;-74
2023/04/08 09:05:51;;;;;;;41.65;30.27;;;7.20;99.90;;;;;;5060209;28;20501;-73
2023/04/08 09:08:37;;;;;;;42.90;29.65;;;7.30;99.90;;;;;;5051488;28;20036;-74
2023/04/08 09:11:22;;;;;;;43.17;29.00;;;7.40;99.90;;;;;;5055748;28;20421;-74
2023/04/08 09:13:48;;;;;;;40.00;27.77;;;7.40;99.90;;;;;;5058958;28;20055;-72
2023/04/08 09:16:17;;;;;;;36.67;26.52;;;7.40;99.90;;;;;;5055514;28;20044;-73
2023/04/08 09:18:44;;;;;;;37.30;23.33;;;7.30;99.90;;;;;;5058167;28;20059;-74
2023/04/08 09:21:12;;;;;;;33.53;23.60;;;7.40;99.90;;;;;;5063814;28;20041;-74
2023/04/08 09:23:45;;;;;;;36.83;23.13;;;7.40;99.90;;;;;;5064275;28;20101;-74
2023/04/08 09:26:21;;;;;;;32.75;22.33;;;7.50;99.90;;;;;;5063086;28;20497;-74
2023/04/08 09:29:06;;;;;;;38.17;25.73;;;7.40;99.90;;;;;;5061605;28;20063;-74
2023/04/08 09:31:41;;;;;;;37.10;25.02;;;7.30;99.90;;;;;;5066807;28;20036;-74
2023/04/08 09:34:11;;;;;;;35.97;23.98;;;7.20;99.90;;;;;;5062387;28;20058;-75
2023/04/08 09:36:37;;;;;;;36.33;24.90;;;7.20;99.90;;;;;;5066877;28;20090;-76
2023/04/08 09:39:02;;;;;;;39.53;23.90;;;7.20;99.90;;;;;;5057206;28;20071;-76
2023/04/08 09:41:35;;;;;;;30.60;23.48;;;7.20;99.90;;;;;;5061097;28;20442;-75
2023/04/08 09:44:03;;;;;;;37.28;24.35;;;7.40;99.90;;;;;;5051785;28;20615;-75
2023/04/08 09:46:57;;;;;;;35.92;24.25;;;7.40;99.90;;;;;;5064390;28;20052;-75
2023/04/08 09:49:28;;;;;;;34.83;22.95;;;7.40;99.90;;;;;;5056515;28;20124;-75
2023/04/08 09:52:22;;;;;;;38.63;25.08;;;7.50;99.90;;;;;;5056318;28;20060;-75
2023/04/08 09:55:03;;;;;;;34.58;22.98;;;7.50;99.90;;;;;;5055172;28;20048;-75
2023/04/08 09:57:43;;;;;;;37.00;23.30;;;7.60;99.90;;;;;;5062154;28;20406;-76
2023/04/08 10:00:13;;;;;;;33.92;23.55;;;7.60;99.90;;;;;;5055047;28;22101;-76
2023/04/08 10:02:59;;;;;;;38.35;24.25;;;7.70;99.90;;;;;;5061226;28;20057;-76
2023/04/08 10:05:25;;;;;;;35.40;22.88;;;7.80;99.90;;;;;;5060737;28;20128;-75
2023/04/08 10:07:52;;;;;;;32.35;22.63;;;7.80;99.90;;;;;;5061663;28;20071;-75
2023/04/08 10:10:18;;;;;;;31.58;22.23;;;7.80;99.90;;;;;;5053111;28;20060;-75
2023/04/08 10:12:45;;;;;;;31.20;22.17;;;7.90;99.90;;;;;;5062223;28;20060;-75
2023/04/08 10:15:27;;;;;;;32.40;23.15;;;7.90;99.90;;;;;;5059446;28;20048;-76
2023/04/08 10:17:55;;;;;;;33.60;24.00;;;8.00;99.90;;;;;;5062567;28;20089;-76
2023/04/08 10:20:33;;;;;;;28.20;21.88;;;8.00;99.90;;;;;;5060246;28;20041;-76
2023/04/08 10:22:59;;;;;;;35.58;24.15;;;8.10;99.90;;;;;;5058628;28;20072;-75
2023/04/08 10:25:32;;;;;;;31.85;22.92;;;8.10;99.90;;;;;;5061835;28;20076;-76
2023/04/08 10:28:22;;;;;;;32.78;24.42;;;8.10;99.90;;;;;;5064010;28;20128;-75
2023/04/08 10:30:56;;;;;;;34.28;23.02;;;8.10;99.90;;;;;;5057705;28;20505;-75
2023/04/08 10:33:33;;;;;;;32.38;23.35;;;8.20;99.90;;;;;;5060795;28;20045;-75
2023/04/08 10:36:01;;;;;;;34.05;24.50;;;8.20;99.90;;;;;;5062483;28;20044;-75
2023/04/08 10:38:27;;;;;;;32.75;22.80;;;8.30;99.90;;;;;;5061604;28;20437;-75
2023/04/08 10:40:53;;;;;;;34.83;24.50;;;8.30;99.90;;;;;;5063998;28;20058;-76
2023/04/08 10:43:19;;;;;;;35.45;25.52;;;8.30;99.90;;;;;;5067237;28;20055;-75
2023/04/08 10:45:45;;;;;;;36.22;24.77;;;8.40;99.90;;;;;;5062651;28;20794;-75
2023/04/08 10:48:16;;;;;;;30.77;22.58;;;8.40;99.90;;;;;;5067756;28;20391;-75
2023/04/08 10:50:43;;;;;;;31.90;23.40;;;8.50;99.90;;;;;;5066229;28;20475;-75
2023/04/08 10:53:10;;;;;;;33.58;22.50;;;8.40;99.90;;;;;;5067223;28;20410;-75
2023/04/08 10:55:36;;;;;;;35.00;25.23;;;8.50;99.90;;;;;;5067643;28;20048;-76
2023/04/08 10:58:08;;;;;;;37.60;24.38;;;8.50;99.90;;;;;;5067760;28;20076;-76
2023/04/08 11:00:39;;;;;;;30.83;24.13;;;8.60;99.90;;;;;;5059089;28;20417;-76
2023/04/08 11:03:09;;;;;;;30.00;22.75;;;8.60;99.90;;;;;;5052907;28;20057;-75
2023/04/08 11:05:36;;;;;;;30.25;21.33;;;8.70;99.90;;;;;;5063421;28;20058;-75
2023/04/08 11:08:03;;;;;;;30.00;21.20;;;8.70;99.90;;;;;;5064615;28;20060;-75
2023/04/08 11:10:29;;;;;;;32.10;22.20;;;8.70;99.90;;;;;;5060680;28;20501;-76
2023/04/08 11:12:57;;;;;;;30.50;22.17;;;8.70;99.90;;;;;;5061352;28;20076;-75
2023/04/08 11:15:29;;;;;;;31.00;21.55;;;8.70;99.90;;;;;;5067123;28;20378;-76
2023/04/08 11:17:56;;;;;;;36.03;24.80;;;8.70;99.90;;;;;;5068168;28;20045;-75
2023/04/08 11:20:21;;;;;;;36.75;23.48;;;8.70;99.90;;;;;;5053442;28;20036;-75
2023/04/08 11:22:49;;;;;;;33.67;23.17;;;8.80;99.90;;;;;;5063896;28;20044;-76
2023/04/08 11:25:15;;;;;;;31.80;22.95;;;8.80;99.90;;;;;;5062381;28;20052;-75
2023/04/08 11:27:41;;;;;;;37.55;24.33;;;8.80;99.90;;;;;;5059610;28;20101;-75
2023/04/08 11:30:07;;;;;;;33.60;24.63;;;8.80;99.90;;;;;;5062268;28;20111;-75
2023/04/08 11:32:35;;;;;;;42.70;24.45;;;8.80;99.90;;;;;;5059324;28;20048;-75
2023/04/08 11:35:03;;;;;;;42.20;27.15;;;8.80;99.90;;;;;;5063037;28;20543;-75
2023/04/08 11:37:39;;;;;;;34.40;25.80;;;8.80;99.90;;;;;;5057939;28;20507;-75
2023/04/08 11:40:12;;;;;;;46.53;26.38;;;8.90;99.90;;;;;;5054078;28;20041;-75
2023/04/08 11:42:38;;;;;;;39.13;26.00;;;8.90;99.90;;;;;;5067057;28;20047;-75
2023/04/08 11:45:12;;;;;;;37.42;27.13;;;8.90;99.90;;;;;;5061836;28;20048;-75
2023/04/08 11:47:38;;;;;;;44.33;28.55;;;9.00;99.90;;;;;;5068181;28;20064;-75
2023/04/08 11:50:04;;;;;;;42.08;27.40;;;8.90;99.90;;;;;;5057152;28;20485;-75
2023/04/08 11:52:50;;;;;;;39.83;26.88;;;8.90;99.90;;;;;;5060781;28;20048;-75
2023/04/08 11:55:32;;;;;;;47.70;32.42;;;8.80;99.90;;;;;;5062934;28;20052;-75
2023/04/08 11:58:03;;;;;;;45.53;26.75;;;8.80;99.90;;;;;;5061086;28;20110;-74
2023/04/08 12:00:30;;;;;;;39.35;28.52;;;8.80;99.90;;;;;;5062711;28;20045;-75
2023/04/08 12:02:55;;;;;;;41.08;27.98;;;8.80;99.90;;;;;;5058175;28;20061;-75
2023/04/08 12:05:21;;;;;;;47.13;31.88;;;8.80;99.90;;;;;;5066176;28;20117;-75
2023/04/08 12:07:47;;;;;;;53.50;34.45;;;8.90;99.90;;;;;;5058532;28;20054;-75
2023/04/08 12:10:13;;;;;;;56.05;35.13;;;8.90;99.90;;;;;;5057220;28;20060;-75
2023/04/08 12:12:39;;;;;;;61.47;37.10;;;8.90;99.90;;;;;;5059123;28;20037;-76
2023/04/08 12:15:07;;;;;;;62.38;39.47;;;8.90;99.90;;;;;;5055005;28;20497;-75
2023/04/08 12:17:34;;;;;;;62.30;38.35;;;8.80;99.90;;;;;;5068603;28;20139;-76
2023/04/08 12:20:00;;;;;;;61.55;38.42;;;8.80;99.90;;;;;;5068916;28;20123;-75
2023/04/08 12:22:26;;;;;;;75.68;45.85;;;8.70;99.90;;;;;;5058344;28;20049;-75
2023/04/08 12:24:52;;;;;;;68.82;41.50;;;8.70;99.90;;;;;;5066476;28;20602;-75
2023/04/08 12:27:18;;;;;;;63.97;41.53;;;8.70;99.90;;;;;;5068316;28;20059;-75
2023/04/08 12:29:45;;;;;;;71.05;42.97;;;8.80;99.90;;;;;;5060540;28;20528;-75
2023/04/08 12:32:11;;;;;;;70.78;44.42;;;8.80;99.90;;;;;;5061787;28;20056;-74
2023/04/08 12:34:37;;;;;;;67.70;43.10;;;8.80;99.90;;;;;;5059793;28;20452;-74
2023/04/08 12:37:02;;;;;;;71.65;43.53;;;8.70;99.90;;;;;;5054067;28;20040;-75
2023/04/08 12:39:28;;;;;;;77.32;49.38;;;8.70;99.90;;;;;;5041038;28;20053;-75
2023/04/08 12:41:53;;;;;;;75.95;47.35;;;8.80;99.90;;;;;;5036110;28;20127;-75